FL71 weather

Pennington Heliport
De Funiak Springs, Florida, United States

Public forecast

Using degrees Fahrenheit for public forecast. Weather courtesy of forecast.io.

METAR (pilot weather report)

Closest report is Destin Executive Airport, 15.2 nm (28.2 km) W. Retrieved 2018/01/20 17:53 UTC (35 minutes ago):

KDTS 201753Z 09007KT 10SM CLR 18/01 A3029 RMK AO2 SLP255 T01830006 10183 20061 58013

TAF (pilot weather forecast)

Closest forecast is Destin-Ft Walton Beach Airport, 19.1 nm (35.3 km) WNW. Retrieved 2018/01/20 18:12 UTC (16 minutes ago):

TAF KVPS 201800Z 2018/2124 12006KT 9999 SCT100 SCT250 QNH3024INS BECMG 2109/2110 10008KT 9999 SKC QNH3021INS TX18/2021Z TN03/2112Z FCST BY USAF WX MET TECH